Beechgrove, Tennessee
Current Conditions -  °F | °C
As of 10:35 PM on Wednesday 26 Nov 2014 (Local Time) from KSYI Reporting Station
Clear Clear  
Wind Chill: 32°   Ceiling: Unl
Heat Index: 39°   Visibility: 10mi
Dew Point: 36°   Wind: 13mph
Humidity: 87%   Direction: 270°W
Pressure: 30.09"   Gusts: NA
Location:  35.63°N, 86.24°W
Report Text: KSYI 270435Z AUTO 27011KT 10SM CLR 04/02 A3009 RMK
Loading
Personal Weather Stations






























Interactive Weather Map New forecast layout! Learn more

10-Day Weather Forecast

Advertisements
Track Severe Weather on mobile